Hunt, Arkansas
Current Conditions -  °F | °C
As of 1:53 PM on Sunday 25 Jan 2015 (Local Time) from KRUE Reporting Station
Overcast Overcast  
Wind Chill: 52°   Ceiling: 4700
Heat Index: 52°   Visibility: 10mi
Dew Point: 35°   Wind: 21mph
Humidity: 53%   Direction: 290°WNW
Pressure: 29.8"   Gusts: 26mph
Location:  35.4189°N, 93.6161°W
Report Text: KRUE 251953Z AUTO 29018G23KT 10SM OVC047 11/02 A2980 RMK AO2 PK WND 30036/1904 SLP088 T01110017
Loading
Personal Weather Stations






























Interactive Weather Map New forecast layout! Learn more

10-Day Weather Forecast

Advertisements
Track Severe Weather on mobile